Time;durP1;ratioP1;P1;durP2;ratioP2;P2;SDS_P1;SDS_P2;PMS_P1;PMS_P2;Temp;Humidity;BMP_temperature;BMP_pressure;BME280_temperature;BME280_humidity;BME280_pressure;Samples;Min_cycle;Max_cycle;Signal;HPM_P1;HPM_P2
2022/02/05 00:39:06;;;;;;;6.03;2.60;;;22.20;54.90;;;;;;20745981;28;20067;-53
2022/02/05 00:49:07;;;;;;;5.93;2.63;;;22.00;55.00;;;;;;20800005;28;20145;-53
2022/02/05 00:59:09;;;;;;;5.70;2.60;;;21.80;55.20;;;;;;20772317;28;20471;-53
2022/02/05 01:09:18;;;;;;;7.57;2.60;;;21.70;55.30;;;;;;20765277;28;20087;-53
2022/02/05 02:20:53;;;;;;;5.65;2.95;;;22.70;54.40;;;;;;20808101;28;20524;-53
2022/02/05 02:31:09;;;;;;;3.53;2.03;;;22.70;54.30;;;;;;20782548;28;20071;-53
2022/02/05 02:41:17;;;;;;;5.78;2.65;;;22.80;54.20;;;;;;20792825;28;20046;-53
2022/02/05 03:01:42;;;;;;;6.72;2.40;;;22.60;54.20;;;;;;20799453;28;20049;-54
2022/02/05 03:11:44;;;;;;;4.03;2.63;;;22.50;54.30;;;;;;20790436;28;20599;-53
2022/02/05 03:21:45;;;;;;;3.20;2.40;;;22.30;54.40;;;;;;20777242;28;20110;-53
2022/02/05 03:31:47;;;;;;;5.45;2.58;;;22.20;54.60;;;;;;20816352;28;20400;-52
2022/02/05 03:41:50;;;;;;;6.55;2.70;;;21.90;54.70;;;;;;20787500;28;20057;-52
2022/02/05 03:51:53;;;;;;;4.63;2.38;;;21.80;54.80;;;;;;20768711;28;20053;-52
2022/02/05 04:01:54;;;;;;;5.97;2.42;;;21.70;55.00;;;;;;20799731;28;20064;-53
2022/02/05 04:22:36;;;;;;;6.28;2.55;;;21.30;55.60;;;;;;20764361;28;20061;-52
2022/02/05 04:32:58;;;;;;;3.70;2.30;;;21.60;55.50;;;;;;20799452;28;20135;-52
2022/02/05 04:54:04;;;;;;;7.25;2.35;;;22.20;54.80;;;;;;20760175;28;20045;-53
2022/02/05 05:04:35;;;;;;;2.97;1.95;;;22.60;54.40;;;;;;20779496;28;20089;-52
2022/02/05 05:25:36;;;;;;;4.00;1.75;;;22.70;54.10;;;;;;20759142;28;20077;-52
2022/02/05 05:35:57;;;;;;;4.38;2.05;;;22.70;54.10;;;;;;20766348;28;20358;-53
2022/02/05 05:46:31;;;;;;;4.05;2.00;;;22.70;54.10;;;;;;20773976;28;20053;-52
2022/02/05 05:56:49;;;;;;;4.45;2.25;;;22.50;54.20;;;;;;20803926;28;20127;-53
2022/02/05 06:07:10;;;;;;;4.75;2.20;;;22.40;54.20;;;;;;20776335;28;20488;-53
2022/02/05 06:17:32;;;;;;;3.10;2.20;;;22.20;54.30;;;;;;20760264;28;20062;-53
2022/02/05 06:27:53;;;;;;;4.93;2.67;;;22.10;54.50;;;;;;20812484;28;20073;-53
2022/02/05 06:38:14;;;;;;;3.70;2.28;;;21.90;54.70;;;;;;20794807;28;20050;-52
2022/02/05 06:48:35;;;;;;;5.15;2.40;;;21.70;55.10;;;;;;20811927;28;20512;-56
2022/02/05 06:58:57;;;;;;;4.50;2.20;;;21.40;55.50;;;;;;20807384;28;20061;-52
2022/02/05 07:09:20;;;;;;;4.43;1.95;;;21.20;56.00;;;;;;20776499;28;20093;-52
2022/02/05 07:19:54;;;;;;;3.25;1.80;;;21.10;56.20;;;;;;20789121;28;20127;-52
2022/02/05 07:30:15;;;;;;;2.55;1.65;;;21.40;55.80;;;;;;20806268;28;20088;-51
2022/02/05 07:40:36;;;;;;;3.97;1.80;;;21.90;55.40;;;;;;20794410;28;20138;-52
2022/02/05 07:50:41;;;;;;;3.72;1.63;;;22.20;55.20;;;;;;20773041;28;20053;-52
2022/02/05 08:00:43;;;;;;;3.25;1.77;;;22.60;55.00;;;;;;20806984;28;20082;-54
2022/02/05 08:11:07;;;;;;;2.83;1.67;;;22.80;54.60;;;;;;20788295;28;20052;-55
2022/02/05 08:21:27;;;;;;;4.78;1.83;;;23.00;54.30;;;;;;20807943;28;20049;-53
2022/02/05 08:31:29;;;;;;;1.80;1.40;;;23.10;54.10;;;;;;20803982;28;20068;-53
2022/02/05 08:41:31;;;;;;;2.00;1.35;;;23.00;54.00;;;;;;20800320;28;20098;-54
2022/02/05 08:51:33;;;;;;;2.10;1.38;;;23.00;53.90;;;;;;20788221;28;20053;-53
2022/02/05 09:01:54;;;;;;;5.95;2.05;;;22.90;53.90;;;;;;20780882;28;20507;-55
2022/02/05 09:22:06;;;;;;;1.90;1.20;;;22.60;54.00;;;;;;20789158;28;20465;-56
2022/02/05 09:32:08;;;;;;;2.75;1.27;;;22.60;53.80;;;;;;20810921;28;20064;-51
2022/02/05 09:42:11;;;;;;;2.70;1.60;;;22.60;53.70;;;;;;20780495;28;20140;-51
2022/02/05 09:52:24;;;;;;;5.22;2.10;;;22.50;53.90;;;;;;20799068;28;20484;-51
2022/02/05 10:02:36;;;;;;;2.88;1.88;;;22.40;54.10;;;;;;20785709;28;20449;-52
2022/02/05 10:12:39;;;;;;;7.30;2.38;;;22.20;54.40;;;;;;20774894;28;20582;-51
2022/02/05 10:22:43;;;;;;;5.05;1.70;;;22.20;54.70;;;;;;20792710;28;20218;-52
2022/02/05 10:32:49;;;;;;;10.68;3.45;;;22.00;55.00;;;;;;20791890;28;20081;-50
2022/02/05 10:53:26;;;;;;;5.85;2.13;;;21.60;51.60;;;;;;20815591;28;20492;-51
2022/02/05 11:14:57;;;;;;;3.05;1.60;;;21.20;49.30;;;;;;20789557;28;20372;-51
2022/02/05 11:24:23;;;;;;;3.90;1.60;;;21.10;48.20;;;;;;20788819;28;20054;-50
2022/02/05 11:34:38;;;;;;;2.20;1.30;;;21.00;48.00;;;;;;20859039;28;20044;-50
2022/02/05 11:44:40;;;;;;;2.85;1.10;;;20.90;46.50;;;;;;20797940;28;20049;-50
2022/02/05 11:55:21;;;;;;;5.13;1.10;;;20.80;46.20;;;;;;20793090;28;20453;-51
2022/02/05 12:05:27;;;;;;;2.13;1.02;;;20.70;45.20;;;;;;20759883;28;20046;-53
2022/02/05 12:15:29;;;;;;;5.88;0.73;;;20.80;45.70;;;;;;20779275;28;20049;-51
2022/02/05 12:25:31;;;;;;;4.85;0.75;;;20.80;45.00;;;;;;20781176;28;20453;-50
2022/02/05 12:35:36;;;;;;;2.08;0.60;;;20.70;44.50;;;;;;20811520;28;20054;-52
2022/02/05 12:46:28;;;;;;;1.80;0.90;;;20.60;44.20;;;;;;20781194;28;20107;-50
2022/02/05 12:56:19;;;;;;;3.17;0.77;;;20.70;44.90;;;;;;20791239;28;20060;-49
2022/02/05 13:06:21;;;;;;;2.53;0.82;;;20.70;45.50;;;;;;20786212;28;20053;-52
2022/02/05 13:16:25;;;;;;;1.90;0.60;;;20.70;45.90;;;;;;20761043;28;20062;-51
2022/02/05 13:26:41;;;;;;;2.47;0.85;;;20.80;46.60;;;;;;20795010;28;20441;-53
2022/02/05 13:47:04;;;;;;;2.03;0.40;;;20.80;47.70;;;;;;20770637;28;20061;-51
2022/02/05 13:57:07;;;;;;;2.28;0.80;;;20.80;48.00;;;;;;20788692;28;20065;-52
2022/02/05 14:07:08;;;;;;;1.40;0.60;;;20.70;48.50;;;;;;20791466;28;20207;-51
2022/02/05 14:17:19;;;;;;;0.85;0.50;;;20.80;48.80;;;;;;20801251;28;20068;-52
2022/02/05 14:27:29;;;;;;;2.42;0.60;;;20.80;49.30;;;;;;20792150;28;20042;-52
2022/02/05 14:47:51;;;;;;;2.38;0.70;;;20.80;49.60;;;;;;20779881;28;20345;-52
2022/02/05 14:57:53;;;;;;;3.28;0.63;;;20.80;49.90;;;;;;20797512;28;20132;-52
2022/02/05 15:07:55;;;;;;;1.80;0.68;;;20.80;50.10;;;;;;20807764;28;20046;-51
2022/02/05 15:17:56;;;;;;;2.03;0.73;;;20.80;50.30;;;;;;20783024;28;20057;-51
2022/02/05 15:27:57;;;;;;;3.90;1.05;;;20.80;50.60;;;;;;20770400;28;20085;-51
2022/02/05 15:38:08;;;;;;;1.17;0.70;;;20.80;50.80;;;;;;20759862;28;20092;-51
2022/02/05 15:48:09;;;;;;;1.70;0.77;;;20.70;51.00;;;;;;20762445;28;20083;-51
2022/02/05 15:58:18;;;;;;;2.30;0.50;;;20.70;51.10;;;;;;20807031;28;20053;-51
2022/02/05 16:08:19;;;;;;;1.20;0.60;;;20.70;51.30;;;;;;20776535;28;20057;-50
2022/02/05 16:18:21;;;;;;;2.28;0.80;;;20.70;51.40;;;;;;20744782;28;20053;-50
2022/02/05 16:28:24;;;;;;;4.00;0.85;;;20.60;51.60;;;;;;20764837;28;20137;-50
2022/02/05 16:38:30;;;;;;;2.13;0.68;;;20.60;51.80;;;;;;20804550;28;20136;-50
2022/02/05 16:48:33;;;;;;;2.00;0.50;;;20.50;51.90;;;;;;20773761;28;20108;-49
2022/02/05 16:58:36;;;;;;;2.88;0.73;;;20.50;52.20;;;;;;20783168;28;20512;-50
2022/02/05 17:08:37;;;;;;;5.70;0.82;;;20.50;52.30;;;;;;20871839;28;20083;-51
2022/02/05 17:18:39;;;;;;;2.10;0.90;;;20.60;52.60;;;;;;20936843;28;20458;-52
2022/02/05 17:28:41;;;;;;;2.38;0.73;;;20.60;52.40;;;;;;20938151;28;20075;-51
2022/02/05 17:38:45;;;;;;;3.83;1.05;;;20.70;52.10;;;;;;20929605;28;20056;-51
2022/02/05 17:48:46;;;;;;;15.18;3.03;;;20.80;52.20;;;;;;20916593;28;20079;-51
2022/02/05 17:58:48;;;;;;;15.18;2.80;;;21.10;51.90;;;;;;20976421;28;20132;-52
2022/02/05 18:08:58;;;;;;;11.45;2.20;;;21.40;51.70;;;;;;20937713;28;20075;-50
2022/02/05 18:18:59;;;;;;;12.00;2.53;;;21.80;51.70;;;;;;20939187;28;20053;-49
2022/02/05 18:29:01;;;;;;;11.60;2.20;;;22.20;51.50;;;;;;20952407;28;20040;-51
2022/02/05 18:39:05;;;;;;;15.77;2.45;;;22.50;51.30;;;;;;20964122;28;20048;-51
2022/02/05 18:49:08;;;;;;;4.30;2.17;;;22.80;51.10;;;;;;20940159;28;20076;-49
2022/02/05 18:59:10;;;;;;;6.55;1.83;;;23.10;50.30;;;;;;20965897;28;20056;-51
2022/02/05 19:19:31;;;;;;;4.88;1.50;;;23.10;49.20;;;;;;20954374;28;20112;-52
2022/02/05 19:29:32;;;;;;;8.35;2.60;;;23.00;49.60;;;;;;20919969;28;20152;-53
2022/02/05 19:39:34;;;;;;;14.63;4.65;;;23.00;48.80;;;;;;20924169;28;20052;-53
2022/02/05 19:49:36;;;;;;;21.63;6.93;;;22.90;48.00;;;;;;20926142;28;20040;-53
2022/02/05 19:59:38;;;;;;;26.33;9.32;;;22.60;47.90;;;;;;20925032;28;20205;-51
2022/02/05 20:09:39;;;;;;;95.63;32.10;;;22.30;47.50;;;;;;20922939;28;20037;-52
2022/02/05 20:19:40;;;;;;;127.35;45.00;;;22.10;47.40;;;;;;20914930;28;20503;-54
2022/02/05 20:29:42;;;;;;;172.32;63.30;;;21.90;48.00;;;;;;20930662;28;20044;-53
2022/02/05 20:39:43;;;;;;;153.63;59.80;;;21.80;48.50;;;;;;20966022;28;20060;-52
2022/02/05 20:49:50;;;;;;;147.05;56.13;;;21.70;49.10;;;;;;20959388;28;20418;-53
2022/02/05 20:59:51;;;;;;;134.90;51.15;;;21.70;49.40;;;;;;20978538;28;20052;-53
2022/02/05 21:09:52;;;;;;;113.32;45.72;;;21.70;49.60;;;;;;20964732;28;20048;-52
2022/02/05 21:19:54;;;;;;;107.07;43.22;;;21.60;50.00;;;;;;20953053;28;20052;-53
2022/02/05 21:30:00;;;;;;;109.35;41.75;;;21.50;50.40;;;;;;20962397;28;20084;-52
2022/02/05 21:40:03;;;;;;;97.90;38.47;;;21.60;50.60;;;;;;20964735;28;20041;-51
2022/02/05 21:50:12;;;;;;;90.05;36.28;;;21.90;50.50;;;;;;20960042;28;20040;-52
2022/02/05 22:00:17;;;;;;;80.43;33.25;;;22.20;50.50;;;;;;20968805;28;20491;-48
2022/02/05 22:10:19;;;;;;;80.00;33.28;;;22.60;50.10;;;;;;20960967;28;20048;-47
2022/02/05 22:20:21;;;;;;;76.18;33.17;;;22.90;49.90;;;;;;20968189;28;20056;-47
2022/02/05 22:30:22;;;;;;;69.97;31.67;;;23.10;49.60;;;;;;20982736;28;20067;-47
2022/02/05 22:40:23;;;;;;;64.03;28.83;;;23.10;49.50;;;;;;20957074;28;20048;-47
2022/02/05 22:50:25;;;;;;;60.85;28.05;;;23.10;49.50;;;;;;20970956;28;20037;-48
2022/02/05 23:00:39;;;;;;;61.05;26.02;;;22.90;49.70;;;;;;20967470;28;20072;-48
2022/02/05 23:10:54;;;;;;;50.72;24.25;;;22.70;49.70;;;;;;20973288;28;20101;-48
2022/02/05 23:51:39;;;;;;;43.03;19.88;;;21.60;51.30;;;;;;20934901;28;20088;-47
